チューリッヒ の空港の天気 - METARとTAF

チューリヒ国際空港 ( LSZH / ZRH ) - スイス チューリッヒ
飛行場実況気象(Metar)
観測時間03/28 23:20 CEST (03/28 21:20 UTC)
風向・風速不定 2m/s
視程10km以上
天気現象
なし
気温10℃
湿度71%
気圧1026hPa
METARLSZH 282120Z VRB03KT CAVOK 10/05 Q1026 NOSIG
過去の天気等 Google飛行場航空写真 Wunderground天気予報

過去48時間のMETAR

飛行場予報(TAF)
発表時間: 3/28 22:25 CEST (3/28 20:25 UTC)
予報対象時間: 28日23時 CEST ~ 30日5時 CEST
風向・風速不定 2m/s
視程10km以上
なし
29日5時 CEST から 確率 30% で
視程4,000m
天気現象地霧
29日14時 CEST ~ 29日19時 CEST に一時的に
視程10km以上
少しの雲 雲底高度 1,830m
TAF LSZH 282025Z 2821/3003 VRB03KT CAVOK TX20/2915Z TN04/2905Z
PROB30 2903/2907 4000 MIFG
TEMPO 2912/2917 9999 FEW060